KPWM/PWM METAR and TAF weather

Enter ICAO airport designator
Station Type Date Time Source
KPWM METAR 2019/08/25 19:51 UTC NOAA

KPWM 251951Z 10009KT 10SM CLR 19/10 A3034 RMK AO2 SLP274 T01890100


Station Type Date Time Source
KPWM Decoded METAR 2019/08/25 19:51 UTC NOAA

Station name not available
Aug 25, 2019 - 03:51 PM EDT / 2019.08.25 1951 UTC
Wind: from the E (100 degrees) at 10 MPH (9 KT):0
Visibility: 10 mile(s):0
Sky conditions: clear
Temperature: 66.0 F (18.9 C)
Dew Point: 50.0 F (10.0 C)
Relative Humidity: 56%
Pressure (altimeter): 30.34 in. Hg (1027 hPa)
ob: KPWM 251951Z 10009KT 10SM CLR 19/10 A3034 RMK AO2 SLP274 T01890100
cycle: 20

Station Type Date Time Source
KPWM TAF 2019/08/25 18:24 UTC NOAA

TAF KPWM 251721Z 2518/2618 09010KT P6SM SKC
FM260100 01003KT P6SM SKC

Example: see airport list